KOAJ/OAJ METAR and TAF weather

Enter ICAO airport designator
Station Type Date Time Source
KOAJ METAR 2020/09/22 06:56 UTC NOAA

KOAJ 220656Z AUTO 01005KT 10SM CLR 12/09 A3027 RMK AO2 SLP252 T01170089 PNO $


Station Type Date Time Source
KOAJ Decoded METAR 2020/09/22 06:56 UTC NOAA

Jacksonville, Albert J Ellis Airport, NC, United States (KOAJ) 34-50N 077-37W
Sep 22, 2020 - 02:56 AM EDT / 2020.09.22 0656 UTC
Wind: from the N (010 degrees) at 6 MPH (5 KT):0
Visibility: 10 mile(s):0
Sky conditions: clear
Temperature: 53.1 F (11.7 C)
Dew Point: 48.0 F (8.9 C)
Relative Humidity: 82%
Pressure (altimeter): 30.27 in. Hg (1025 hPa)
ob: KOAJ 220656Z AUTO 01005KT 10SM CLR 12/09 A3027 RMK AO2 SLP252 T01170089 PNO
cycle: 7

Station Type Date Time Source
KOAJ TAF 2020/09/22 06:24 UTC NOAA

TAF KOAJ 220521Z 2206/2306 01004KT P6SM BKN040
FM221000 35007KT P6SM SKC
AMD LTD TO CLD VIS AND WIND

Example: see airport list